Terminal Aerodrome Forecast
Issued by NWS Amarillo, TX

Home | Current Version | Previous Version | Text Only | Print | Product List | Glossary On
Versions: 1 2 3 4 5 6 7 8 9 10 11 12 13 14 15 16 17 18 19 20
000
FTUS44 KAMA 241140
TAFAMA
TAF
KAMA 241140Z 2412/2512 13013KT P6SM SCT300
     FM241800 04015KT P6SM OVC080
     FM242200 02023G33KT P6SM OVC050
     FM250300 01022G32KT P6SM OVC020 PROB30 2506/2512 -SHRA=

USA.gov is the U.S. government's official web portal to all federal, state and local government web resources and services.